Time;durP1;ratioP1;P1;durP2;ratioP2;P2;SDS_P1;SDS_P2;PMS_P1;PMS_P2;Temp;Humidity;BMP_temperature;BMP_pressure;BME280_temperature;BME280_humidity;BME280_pressure;Samples;Min_cycle;Max_cycle;Signal;HPM_P1;HPM_P2
2021/10/13 00:00:34;;;;;;;12.55;3.65;;;;;;;9.57;78.18;102231.41;4992021;28;20034;-47
2021/10/13 00:03:02;;;;;;;11.10;3.42;;;;;;;9.58;78.25;102230.34;4990607;28;20437;-45
2021/10/13 00:05:30;;;;;;;9.52;3.50;;;;;;;9.58;78.40;102230.34;4992008;28;20058;-47
2021/10/13 00:07:57;;;;;;;9.93;3.35;;;;;;;9.59;78.57;102229.28;4991808;28;20038;-51
2021/10/13 00:10:25;;;;;;;9.75;3.25;;;;;;;9.57;78.57;102226.81;4992149;28;20058;-49
2021/10/13 00:12:53;;;;;;;8.00;3.20;;;;;;;9.57;78.58;102225.97;4991609;28;20034;-49
2021/10/13 00:15:20;;;;;;;8.10;3.10;;;;;;;9.55;78.71;102222.66;4992175;28;20049;-48
2021/10/13 00:17:48;;;;;;;8.18;3.53;;;;;;;9.54;78.87;102207.38;4991525;28;20117;-48
2021/10/13 00:20:16;;;;;;;7.60;3.22;;;;;;;9.54;78.94;102213.63;4992022;28;20039;-50
2021/10/13 00:22:43;;;;;;;8.90;3.28;;;;;;;9.54;78.72;102218.25;4991462;28;20050;-48
2021/10/13 00:25:11;;;;;;;10.57;3.55;;;;;;;9.55;78.79;102222.66;4991981;28;20054;-47
2021/10/13 00:27:38;;;;;;;8.55;3.10;;;;;;;9.56;78.86;102221.59;4991436;28;20134;-48
2021/10/13 00:30:06;;;;;;;7.75;3.60;;;;;;;9.56;79.10;102229.75;4992080;28;20093;-49
2021/10/13 00:32:34;;;;;;;12.25;3.70;;;;;;;9.53;78.92;102238.38;4990651;28;20477;-48
2021/10/13 00:35:02;;;;;;;9.07;3.58;;;;;;;9.51;79.25;102243.19;4991650;28;20230;-50
2021/10/13 00:37:29;;;;;;;12.60;3.78;;;;;;;9.50;79.44;102247.81;4990312;28;20039;-49
2021/10/13 00:39:57;;;;;;;10.18;3.53;;;;;;;9.52;79.27;102244.84;4991354;28;20038;-48
2021/10/13 00:42:24;;;;;;;8.20;3.33;;;;;;;9.49;79.65;102240.69;5007862;28;20493;-49
2021/10/13 00:44:52;;;;;;;12.93;3.58;;;;;;;9.49;79.32;102243.41;5007563;28;20048;-49
2021/10/13 00:47:20;;;;;;;12.93;3.60;;;;;;;9.48;79.42;102240.94;5008819;28;21594;-48
2021/10/13 00:49:47;;;;;;;8.68;3.38;;;;;;;9.48;80.18;102233.59;5003745;28;20413;-48
2021/10/13 00:52:16;;;;;;;12.00;3.47;;;;;;;9.54;80.02;102234.59;5005176;28;20042;-47
2021/10/13 00:54:44;;;;;;;9.52;3.20;;;;;;;9.59;79.82;102232.00;5005140;28;20046;-49
2021/10/13 00:57:12;;;;;;;8.07;3.40;;;;;;;9.62;79.43;102234.28;5004253;28;20095;-48
2021/10/13 00:59:40;;;;;;;9.60;3.30;;;;;;;9.57;79.34;102226.81;4996902;28;20386;-51
2021/10/13 01:02:11;;;;;;;9.65;3.42;;;;;;;9.59;79.59;102232.84;5002679;28;20042;-46
2021/10/13 01:05:06;;;;;;;8.95;3.15;;;;;;;9.60;79.21;102233.69;4982423;28;20097;-45
2021/10/13 01:07:34;;;;;;;9.52;3.10;;;;;;;9.56;79.62;102232.47;4994504;28;20046;-46
2021/10/13 01:10:10;;;;;;;8.48;3.17;;;;;;;9.58;80.24;102243.97;4991940;28;20042;-50
2021/10/13 01:13:11;;;;;;;8.90;3.17;;;;;;;9.62;79.97;102245.19;4991491;28;20564;-47
2021/10/13 01:16:06;;;;;;;6.93;2.95;;;;;;;9.62;79.54;102239.75;4992593;28;20047;-48
2021/10/13 01:18:51;;;;;;;12.23;3.88;;;;;;;9.62;79.75;102242.47;4992508;28;20050;-46
2021/10/13 01:21:52;;;;;;;9.70;3.42;;;;;;;9.62;79.92;102247.06;4992444;28;20581;-46
2021/10/13 01:24:34;;;;;;;8.40;3.35;;;;;;;9.58;79.98;102243.97;4992772;28;20132;-48
2021/10/13 01:27:04;;;;;;;8.05;3.30;;;;;;;9.58;80.32;102244.78;4991504;28;20122;-48
2021/10/13 01:29:35;;;;;;;7.07;3.17;;;;;;;9.60;79.95;102247.28;4992659;28;20109;-49
2021/10/13 01:32:10;;;;;;;7.47;3.28;;;;;;;9.61;79.75;102254.38;4976302;28;20050;-48
2021/10/13 01:34:42;;;;;;;10.88;3.50;;;;;;;9.58;79.88;102243.97;4992291;28;20524;-47
2021/10/13 01:37:27;;;;;;;9.30;3.42;;;;;;;9.55;79.75;102249.88;4991799;28;20096;-49
2021/10/13 01:39:57;;;;;;;11.40;3.20;;;;;;;9.52;79.66;102239.41;4991554;28;20089;-49
2021/10/13 01:42:25;;;;;;;10.48;3.38;;;;;;;9.49;79.79;102239.88;4959724;28;20081;-50
2021/10/13 01:44:57;;;;;;;10.95;3.50;;;;;;;9.45;80.26;102244.91;4976039;28;20046;-45
2021/10/13 01:47:25;;;;;;;7.40;3.22;;;;;;;9.44;79.95;102247.88;4975905;28;20046;-44
2021/10/13 01:49:57;;;;;;;11.00;3.50;;;;;;;9.42;80.55;102255.44;4975549;28;20505;-48
2021/10/13 01:52:26;;;;;;;11.95;3.30;;;;;;;9.46;80.58;102254.75;4971970;28;20059;-47
2021/10/13 01:54:58;;;;;;;10.02;3.38;;;;;;;9.52;80.81;102253.00;4955877;28;20051;-48
2021/10/13 01:57:26;;;;;;;7.22;3.10;;;;;;;9.56;80.79;102251.50;4954688;28;20052;-49
2021/10/13 01:59:56;;;;;;;8.82;3.53;;;;;;;9.60;80.64;102258.19;4944769;28;20091;-45
2021/10/13 02:02:32;;;;;;;8.40;3.22;;;;;;;9.59;80.32;102256.50;4954989;28;20046;-48
2021/10/13 02:05:02;;;;;;;8.25;3.10;;;;;;;9.55;80.40;102249.88;4941759;28;20442;-48
2021/10/13 02:07:31;;;;;;;10.43;3.50;;;;;;;9.52;80.84;102250.28;4955608;28;20074;-49
2021/10/13 02:10:08;;;;;;;8.77;3.20;;;;;;;9.51;80.90;102248.66;4969652;28;20550;-49
2021/10/13 02:12:39;;;;;;;10.20;3.92;;;;;;;9.48;80.54;102252.66;4954142;28;20047;-48
2021/10/13 02:15:08;;;;;;;11.18;3.42;;;;;;;9.44;80.84;102251.44;4969551;28;20031;-49
2021/10/13 02:17:46;;;;;;;6.35;3.15;;;;;;;9.42;81.11;102250.81;4953934;28;20051;-48
2021/10/13 02:20:14;;;;;;;11.63;3.58;;;;;;;9.39;81.03;102262.16;4969412;28;21005;-48
2021/10/13 02:22:47;;;;;;;12.82;3.60;;;;;;;9.36;81.24;102279.75;4954113;28;20486;-49
2021/10/13 02:25:15;;;;;;;7.45;3.13;;;;;;;9.35;81.48;102275.34;4973616;28;20053;-45
2021/10/13 02:27:47;;;;;;;11.95;3.75;;;;;;;9.35;81.64;102272.63;4993658;28;20038;-49
2021/10/13 02:30:15;;;;;;;14.40;4.43;;;;;;;9.33;81.61;102272.06;4993146;28;20058;-48
2021/10/13 02:32:43;;;;;;;11.65;3.78;;;;;;;9.33;81.77;102271.19;4992900;28;20105;-48
2021/10/13 02:35:11;;;;;;;9.35;3.40;;;;;;;9.32;81.69;102273.09;4993123;28;20038;-48
2021/10/13 02:37:38;;;;;;;10.02;3.50;;;;;;;9.31;82.13;102271.44;4993863;28;20034;-46
2021/10/13 02:40:08;;;;;;;11.55;3.58;;;;;;;9.29;82.04;102278.16;4993705;28;20057;-49
2021/10/13 02:42:36;;;;;;;9.18;4.22;;;;;;;9.28;82.55;102271.88;4992855;28;20038;-50
2021/10/13 02:45:04;;;;;;;10.68;3.30;;;;;;;9.29;82.41;102270.84;5008119;28;20042;-48
2021/10/13 02:47:51;;;;;;;8.07;3.20;;;;;;;9.30;82.72;102266.22;5008039;28;20052;-48
2021/10/13 02:50:35;;;;;;;9.80;3.50;;;;;;;9.30;82.55;102269.75;4993429;28;20049;-48
2021/10/13 02:53:17;;;;;;;8.63;3.35;;;;;;;9.32;82.76;102272.28;4997483;28;20057;-48
2021/10/13 02:55:54;;;;;;;7.78;3.33;;;;;;;9.32;82.97;102267.66;4992988;28;20057;-49
2021/10/13 02:58:23;;;;;;;10.35;3.22;;;;;;;9.32;82.85;102272.28;4992053;28;20050;-48
2021/10/13 03:00:52;;;;;;;7.82;3.03;;;;;;;9.31;82.76;102265.19;4993029;28;20065;-48
2021/10/13 03:03:33;;;;;;;7.95;3.00;;;;;;;9.30;83.16;102269.75;5007700;28;20061;-47
2021/10/13 03:06:04;;;;;;;7.25;3.10;;;;;;;9.32;83.04;102272.28;5005683;28;20042;-47
2021/10/13 03:08:35;;;;;;;8.88;3.30;;;;;;;9.33;82.83;102273.91;4993132;28;20100;-48
2021/10/13 03:11:05;;;;;;;9.52;3.35;;;;;;;9.34;83.44;102273.72;4993063;28;20050;-47
2021/10/13 03:13:34;;;;;;;11.73;3.60;;;;;;;9.36;82.96;102278.94;4991137;28;20427;-47
2021/10/13 03:16:03;;;;;;;7.85;3.33;;;;;;;9.34;82.80;102276.44;5007527;28;20046;-47
2021/10/13 03:18:31;;;;;;;6.97;3.38;;;;;;;9.31;82.83;102279.59;5007457;28;20118;-48
2021/10/13 03:20:59;;;;;;;8.20;3.08;;;;;;;9.30;83.19;102286.09;4992678;28;20042;-44
2021/10/13 03:23:27;;;;;;;10.23;3.33;;;;;;;9.27;83.25;102283.81;4992535;28;20054;-53
2021/10/13 03:26:08;;;;;;;10.88;3.58;;;;;;;9.26;83.35;102284.03;4992213;28;20050;-50
2021/10/13 03:28:37;;;;;;;9.93;3.47;;;;;;;9.24;83.50;102289.72;4989532;28;20125;-47
2021/10/13 03:31:06;;;;;;;10.90;3.35;;;;;;;9.23;83.39;102285.31;4992045;28;20046;-44
2021/10/13 03:33:36;;;;;;;7.75;3.50;;;;;;;9.22;83.16;102299.16;4992032;28;20784;-47
2021/10/13 03:36:05;;;;;;;10.13;3.90;;;;;;;9.21;83.45;102302.91;4992505;28;20042;-48
2021/10/13 03:38:33;;;;;;;10.20;3.35;;;;;;;9.20;83.80;102304.81;4992231;28;20057;-47
2021/10/13 03:41:01;;;;;;;10.63;3.22;;;;;;;9.19;83.96;102305.88;4992680;28;20074;-45
2021/10/13 03:43:28;;;;;;;7.38;3.33;;;;;;;9.22;84.07;102296.44;4991779;28;20125;-48
2021/10/13 03:45:56;;;;;;;9.85;3.30;;;;;;;9.22;84.16;102302.69;4978073;28;20050;-49
2021/10/13 03:48:27;;;;;;;8.68;3.15;;;;;;;9.24;84.25;102303.31;4992530;28;20041;-45
2021/10/13 03:50:54;;;;;;;7.85;2.90;;;;;;;9.26;84.26;102300.34;4992554;28;20031;-51
2021/10/13 03:53:22;;;;;;;9.80;3.42;;;;;;;9.28;84.38;102314.56;4992149;28;20038;-47
2021/10/13 03:55:49;;;;;;;8.35;3.20;;;;;;;9.33;84.56;102309.28;4992414;28;20046;-50
2021/10/13 03:58:17;;;;;;;7.50;3.10;;;;;;;9.34;83.89;102309.06;4991821;28;20493;-49
2021/10/13 04:00:44;;;;;;;6.88;2.90;;;;;;;9.31;83.83;102309.53;4991766;28;20497;-48
2021/10/13 04:03:12;;;;;;;8.68;3.35;;;;;;;9.31;84.13;102320.41;4991795;28;20105;-48
2021/10/13 04:05:40;;;;;;;8.25;2.90;;;;;;;9.28;83.83;102320.00;4991722;28;20654;-49
2021/10/13 04:08:08;;;;;;;8.50;3.00;;;;;;;9.25;83.81;102328.63;4991946;28;20047;-47
2021/10/13 04:10:36;;;;;;;10.05;2.92;;;;;;;9.22;84.06;102316.28;4992378;28;20042;-45
2021/10/13 04:13:24;;;;;;;11.52;2.90;;;;;;;9.22;84.13;102321.72;4991077;28;20049;-46
2021/10/13 04:16:11;;;;;;;7.55;3.10;;;;;;;9.20;84.27;102314.84;4991586;28;20050;-45
2021/10/13 04:18:59;;;;;;;10.63;3.10;;;;;;;9.18;84.57;102320.50;4980171;28;20050;-50
2021/10/13 04:21:47;;;;;;;12.60;3.65;;;;;;;9.16;84.42;102331.63;5004238;28;20105;-48
2021/10/13 04:24:34;;;;;;;11.65;3.22;;;;;;;9.14;84.38;102338.34;4992062;28;20097;-48
2021/10/13 04:27:22;;;;;;;8.93;2.90;;;;;;;9.12;84.67;102330.38;4991735;28;20054;-46
2021/10/13 04:30:09;;;;;;;9.48;3.25;;;;;;;9.11;84.83;102330.59;4991203;28;20501;-47
2021/10/13 04:32:57;;;;;;;9.02;3.20;;;;;;;9.09;84.97;102332.69;4993345;28;20042;-47
2021/10/13 04:35:45;;;;;;;9.15;3.10;;;;;;;9.09;85.03;102332.69;4980893;28;20039;-45
2021/10/13 04:38:32;;;;;;;10.20;3.10;;;;;;;9.07;85.04;102334.84;4989573;28;20109;-46
2021/10/13 04:41:20;;;;;;;9.95;3.28;;;;;;;9.00;85.56;102334.88;4991588;28;20039;-47
2021/10/13 04:44:07;;;;;;;7.25;3.08;;;;;;;8.99;85.68;102332.38;4992304;28;20050;-47
2021/10/13 04:46:36;;;;;;;9.95;3.30;;;;;;;9.00;85.84;102324.00;4989793;28;20053;-48
2021/10/13 04:49:04;;;;;;;11.85;3.15;;;;;;;9.01;85.99;102328.38;4993894;28;20053;-45
2021/10/13 04:51:32;;;;;;;11.35;3.90;;;;;;;9.02;86.04;102337.34;4995404;28;20038;-47
2021/10/13 04:53:59;;;;;;;13.05;3.67;;;;;;;9.01;86.10;102335.69;5009902;28;20462;-47
2021/10/13 04:56:27;;;;;;;7.88;3.40;;;;;;;9.00;86.12;102343.03;4994937;28;20035;-48
2021/10/13 04:58:54;;;;;;;6.25;3.10;;;;;;;8.99;86.21;102337.81;4994884;28;20051;-48
2021/10/13 05:01:22;;;;;;;8.63;3.67;;;;;;;8.99;86.43;102333.19;4995472;28;20046;-49
2021/10/13 05:03:50;;;;;;;9.07;3.50;;;;;;;8.95;86.23;102338.25;4995067;28;20053;-48
2021/10/13 05:06:17;;;;;;;7.53;3.20;;;;;;;8.91;86.55;102339.72;4990209;28;20054;-47
2021/10/13 05:08:45;;;;;;;8.90;3.47;;;;;;;8.92;87.02;102337.84;4987435;28;20046;-48
2021/10/13 05:11:12;;;;;;;8.65;3.45;;;;;;;8.89;87.20;102339.13;4994593;28;20038;-46
2021/10/13 05:13:40;;;;;;;9.65;3.30;;;;;;;8.90;86.87;102346.25;4994764;28;20034;-49
2021/10/13 05:16:07;;;;;;;9.90;3.25;;;;;;;8.92;87.39;102346.00;4994511;28;20054;-45
2021/10/13 05:18:35;;;;;;;11.77;3.47;;;;;;;8.92;86.85;102346.00;4994894;28;20030;-49
2021/10/13 05:21:03;;;;;;;12.27;4.05;;;;;;;8.89;87.69;102339.13;4994993;28;20072;-48
2021/10/13 05:23:30;;;;;;;8.40;3.53;;;;;;;8.93;87.31;102334.09;4994262;28;20090;-48
2021/10/13 05:25:58;;;;;;;8.50;3.38;;;;;;;8.96;87.35;102337.19;4994085;28;20061;-51
2021/10/13 05:28:25;;;;;;;11.35;3.00;;;;;;;8.99;87.53;102338.63;4994136;28;20038;-49
2021/10/13 05:30:53;;;;;;;16.83;3.25;;;;;;;9.01;87.68;102343.84;4649677;28;10001015;-47
2021/10/13 05:33:20;;;;;;;8.48;3.28;;;;;;;9.04;87.34;102340.69;4648139;28;10000557;-47
2021/10/13 05:35:48;;;;;;;11.02;3.42;;;;;;;9.03;87.61;102334.44;4991730;28;20532;-49
2021/10/13 05:38:15;;;;;;;9.75;3.33;;;;;;;9.05;87.50;102345.09;4992742;28;20039;-47
2021/10/13 05:40:43;;;;;;;7.43;2.83;;;;;;;9.04;87.37;102340.69;4991689;28;20527;-49
2021/10/13 05:43:11;;;;;;;9.50;3.28;;;;;;;9.04;87.20;102340.69;4991870;28;20417;-49
2021/10/13 05:45:39;;;;;;;8.95;3.00;;;;;;;9.03;87.53;102339.03;4991328;28;20129;-48
2021/10/13 05:48:07;;;;;;;11.63;3.28;;;;;;;9.03;87.97;102352.63;4992300;28;20046;-48
2021/10/13 05:50:34;;;;;;;10.73;3.78;;;;;;;9.03;88.25;102349.91;4992167;28;20042;-48
2021/10/13 05:53:02;;;;;;;10.32;3.50;;;;;;;9.02;87.81;102353.66;4992045;28;20046;-46
2021/10/13 05:55:47;;;;;;;7.78;2.97;;;;;;;9.02;88.30;102361.81;5003538;28;20084;-45
2021/10/13 05:58:17;;;;;;;8.88;3.40;;;;;;;9.04;88.14;102366.00;4992102;28;20039;-48
2021/10/13 06:00:46;;;;;;;8.68;3.30;;;;;;;9.02;88.48;102372.69;4981437;28;20066;-44
2021/10/13 06:03:15;;;;;;;9.65;3.30;;;;;;;9.03;88.48;102366.22;4992056;28;20055;-46
2021/10/13 06:05:43;;;;;;;10.02;3.58;;;;;;;9.05;88.60;102369.56;4986409;28;20049;-46
2021/10/13 06:08:11;;;;;;;9.65;3.05;;;;;;;9.05;88.67;102375.00;4991372;28;20043;-49
2021/10/13 06:10:38;;;;;;;9.05;3.20;;;;;;;9.08;89.12;102380.81;4991392;28;20126;-48
2021/10/13 06:13:06;;;;;;;8.20;2.83;;;;;;;9.12;89.30;102381.22;4991566;28;20042;-47
2021/10/13 06:15:34;;;;;;;9.63;3.47;;;;;;;9.14;89.58;102384.56;4991102;28;20073;-47
2021/10/13 06:18:06;;;;;;;12.05;3.10;;;;;;;9.16;89.39;102390.59;4991190;28;20049;-44
2021/10/13 06:20:34;;;;;;;8.65;3.10;;;;;;;9.16;89.36;102390.59;4989586;28;20044;-46
2021/10/13 06:23:21;;;;;;;9.07;2.88;;;;;;;9.19;89.44;102395.59;4990736;28;20045;-45
2021/10/13 06:25:49;;;;;;;11.38;3.40;;;;;;;9.22;89.24;102400.59;4990735;28;20050;-49
2021/10/13 06:28:16;;;;;;;10.40;3.10;;;;;;;9.21;89.60;102396.19;4992045;28;20051;-49
2021/10/13 06:30:44;;;;;;;10.50;2.90;;;;;;;9.21;89.83;102400.81;4993582;28;20038;-49
2021/10/13 06:33:12;;;;;;;9.05;2.90;;;;;;;9.22;89.51;102408.75;4993435;28;20065;-49
2021/10/13 06:35:41;;;;;;;10.38;3.25;;;;;;;9.24;89.57;102403.94;4992834;28;20046;-48
2021/10/13 06:38:08;;;;;;;18.15;3.55;;;;;;;9.26;89.98;102399.13;4993273;28;20118;-48
2021/10/13 06:40:36;;;;;;;7.75;2.95;;;;;;;9.26;89.98;102407.28;4993545;28;20034;-49
2021/10/13 06:43:05;;;;;;;8.82;3.08;;;;;;;9.27;89.63;102406.22;4993892;28;20046;-47
2021/10/13 06:45:35;;;;;;;8.65;3.55;;;;;;;9.30;89.96;102407.66;4992832;28;20061;-48
2021/10/13 06:48:04;;;;;;;9.02;2.97;;;;;;;9.31;90.01;102404.72;4993550;28;20416;-49
2021/10/13 06:50:32;;;;;;;12.27;3.38;;;;;;;9.34;90.43;102412.44;4993090;28;20497;-49
2021/10/13 06:53:00;;;;;;;10.60;3.20;;;;;;;9.36;90.22;102412.22;4992640;28;20092;-50
2021/10/13 06:55:27;;;;;;;5.82;2.75;;;;;;;9.37;89.72;102417.44;4992219;28;20049;-49
2021/10/13 06:57:55;;;;;;;9.82;3.55;;;;;;;9.39;90.23;102417.22;4993443;28;20061;-50
2021/10/13 07:00:23;;;;;;;6.65;3.22;;;;;;;9.39;90.24;102415.31;4993251;28;20121;-49
2021/10/13 07:02:50;;;;;;;10.10;3.40;;;;;;;9.41;90.50;102417.84;4989128;28;20073;-47
2021/10/13 07:05:18;;;;;;;9.10;3.10;;;;;;;9.41;90.46;102420.56;4992699;28;20048;-49
2021/10/13 07:07:47;;;;;;;10.20;3.03;;;;;;;9.43;90.63;102417.59;4992339;28;20045;-46
2021/10/13 07:10:16;;;;;;;7.35;3.00;;;;;;;9.45;90.93;102421.75;4992538;28;20133;-45
2021/10/13 07:13:06;;;;;;;7.47;3.00;;;;;;;9.47;90.84;102427.00;4989853;28;20064;-44
2021/10/13 07:15:55;;;;;;;12.55;3.63;;;;;;;9.50;90.81;102429.25;4991930;28;20038;-48
2021/10/13 07:18:42;;;;;;;8.63;3.30;;;;;;;9.51;90.93;102433.66;4992567;28;20046;-50
2021/10/13 07:21:30;;;;;;;11.15;3.78;;;;;;;9.51;90.89;102430.94;4991952;28;20050;-50
2021/10/13 07:24:00;;;;;;;9.35;3.10;;;;;;;9.52;91.59;102438.03;5007013;28;20038;-49
2021/10/13 07:26:28;;;;;;;8.95;3.20;;;;;;;9.53;91.35;102431.56;4991173;28;20055;-49
2021/10/13 07:28:56;;;;;;;7.63;2.55;;;;;;;9.55;91.89;102434.91;4992525;28;20092;-49
2021/10/13 07:31:23;;;;;;;10.90;3.45;;;;;;;9.57;91.73;102438.19;4992248;28;20042;-48
2021/10/13 07:33:51;;;;;;;12.55;3.40;;;;;;;9.60;91.78;102440.50;4992249;28;20050;-48
2021/10/13 07:36:18;;;;;;;12.55;3.40;;;;;;;9.64;91.74;102435.44;4991979;28;20097;-46
2021/10/13 07:38:46;;;;;;;8.05;3.08;;;;;;;9.64;91.73;102433.53;4991783;28;20034;-49
2021/10/13 07:41:15;;;;;;;7.13;3.00;;;;;;;9.65;92.20;102439.84;4992244;28;20105;-47
2021/10/13 07:43:43;;;;;;;11.38;3.88;;;;;;;9.65;92.03;102437.94;4991859;28;20058;-48
2021/10/13 07:46:12;;;;;;;7.82;3.17;;;;;;;9.66;92.29;102441.50;4992292;28;20053;-50
2021/10/13 07:48:40;;;;;;;10.45;3.25;;;;;;;9.68;92.60;102445.66;4992344;28;20046;-48
2021/10/13 07:51:08;;;;;;;8.93;3.05;;;;;;;9.69;92.55;102441.03;4992014;28;20053;-48
2021/10/13 07:53:35;;;;;;;8.85;3.10;;;;;;;9.70;92.81;102445.44;4992412;28;20054;-50
2021/10/13 07:56:03;;;;;;;8.90;3.15;;;;;;;9.71;92.99;102453.38;4991938;28;20046;-50
2021/10/13 07:58:30;;;;;;;9.82;3.45;;;;;;;9.74;93.12;102454.81;4992486;28;20046;-49
2021/10/13 08:00:58;;;;;;;9.43;3.40;;;;;;;9.76;93.05;102455.44;4992115;28;20086;-48
2021/10/13 08:03:26;;;;;;;10.57;3.15;;;;;;;9.79;93.53;102457.72;4992410;28;20057;-46
2021/10/13 08:05:53;;;;;;;8.95;2.90;;;;;;;9.80;93.25;102460.22;4991341;28;20513;-47
2021/10/13 08:08:21;;;;;;;11.15;3.22;;;;;;;9.81;92.74;102467.34;4992111;28;20062;-50
2021/10/13 08:10:48;;;;;;;10.52;3.63;;;;;;;9.84;93.46;102465.19;4992269;28;20050;-49
2021/10/13 08:13:16;;;;;;;9.32;2.80;;;;;;;9.86;93.46;102469.41;4991824;28;20046;-49
2021/10/13 08:15:44;;;;;;;12.43;3.28;;;;;;;9.89;93.53;102468.13;4991063;28;20085;-48
2021/10/13 08:18:11;;;;;;;8.52;2.80;;;;;;;9.90;93.41;102467.88;4991452;28;20042;-46
2021/10/13 08:20:39;;;;;;;9.13;3.00;;;;;;;9.92;93.64;102462.22;4991751;28;20052;-50
2021/10/13 08:23:06;;;;;;;6.15;3.00;;;;;;;9.94;93.36;102471.81;4992787;28;20046;-45
2021/10/13 08:25:35;;;;;;;7.97;2.80;;;;;;;9.97;93.49;102465.09;4982358;28;20077;-47
2021/10/13 08:28:03;;;;;;;7.60;3.20;;;;;;;9.99;93.39;102469.25;4995209;28;20066;-47
2021/10/13 08:30:30;;;;;;;13.30;3.22;;;;;;;9.99;93.60;102468.44;4995318;28;20042;-49
2021/10/13 08:32:58;;;;;;;7.30;3.17;;;;;;;9.99;93.50;102468.44;4995710;28;20046;-50
2021/10/13 08:35:25;;;;;;;10.85;3.10;;;;;;;9.96;93.74;102464.28;4994860;28;20044;-47
2021/10/13 08:37:53;;;;;;;10.02;3.35;;;;;;;9.99;94.21;102473.88;4995525;28;20092;-47
2021/10/13 08:40:20;;;;;;;11.25;3.15;;;;;;;10.02;94.07;102478.88;4995884;28;20039;-47
2021/10/13 08:42:56;;;;;;;10.15;3.15;;;;;;;10.07;94.11;102481.75;4995545;28;20097;-48
2021/10/13 08:45:26;;;;;;;10.50;3.28;;;;;;;10.13;94.07;102478.16;4995369;28;20038;-47
2021/10/13 08:47:54;;;;;;;12.52;3.60;;;;;;;10.16;94.15;102476.88;4994899;28;20073;-48
2021/10/13 08:50:22;;;;;;;7.68;2.80;;;;;;;10.19;94.61;102482.69;5009889;28;20101;-46
2021/10/13 08:52:53;;;;;;;12.73;3.50;;;;;;;10.22;94.31;102475.94;4995706;28;20038;-47
2021/10/13 08:55:21;;;;;;;12.85;3.15;;;;;;;10.22;94.14;102470.50;4995634;28;20061;-49
2021/10/13 08:58:15;;;;;;;26.70;5.20;;;;;;;10.39;95.13;102476.22;4995256;28;20046;-48
2021/10/13 09:00:45;;;;;;;12.35;4.00;;;;;;;10.68;94.58;102473.81;4995136;28;20042;-47
2021/10/13 09:03:30;;;;;;;9.35;3.22;;;;;;;10.76;92.61;102470.78;4995098;28;20473;-46
2021/10/13 09:06:11;;;;;;;9.00;3.60;;;;;;;10.65;92.14;102478.69;4991915;28;20043;-47
2021/10/13 09:08:59;;;;;;;11.02;3.60;;;;;;;10.52;93.46;102478.81;4994849;28;20058;-47
2021/10/13 09:11:32;;;;;;;10.10;3.60;;;;;;;10.48;93.86;102479.50;4995237;28;20038;-47
2021/10/13 09:14:22;;;;;;;8.32;3.40;;;;;;;10.46;93.01;102474.25;4995077;28;20035;-46
2021/10/13 09:17:03;;;;;;;14.50;3.60;;;;;;;10.48;93.33;102483.06;4992622;28;20038;-46
2021/10/13 09:19:43;;;;;;;10.77;3.15;;;;;;;10.52;93.23;102476.09;4994648;28;20042;-46
2021/10/13 09:22:13;;;;;;;9.32;3.15;;;;;;;10.54;92.89;102476.72;4981834;28;20054;-45
2021/10/13 09:24:48;;;;;;;8.60;3.38;;;;;;;10.57;92.28;102483.59;4994756;28;20042;-47
2021/10/13 09:27:30;;;;;;;9.93;3.25;;;;;;;10.58;92.81;102483.38;4991824;28;20058;-45
2021/10/13 09:29:59;;;;;;;8.68;3.40;;;;;;;10.60;92.20;102485.84;4993486;28;20042;-48
2021/10/13 09:32:27;;;;;;;10.75;3.55;;;;;;;10.61;92.14;102496.53;4993783;28;20070;-47
2021/10/13 09:35:00;;;;;;;11.02;3.72;;;;;;;10.62;92.22;102495.47;4992821;28;20046;-48
2021/10/13 09:37:48;;;;;;;9.30;3.40;;;;;;;10.64;92.19;102492.53;4984791;28;20038;-49
2021/10/13 09:40:26;;;;;;;10.77;3.20;;;;;;;10.66;92.75;102499.41;4993446;28;20055;-48
2021/10/13 09:42:58;;;;;;;11.02;3.60;;;;;;;10.69;92.50;102492.69;4993598;28;20049;-48
2021/10/13 09:45:28;;;;;;;9.00;3.78;;;;;;;10.74;92.85;102497.44;4992300;28;20501;-47
2021/10/13 09:48:01;;;;;;;10.27;3.20;;;;;;;10.81;92.99;102498.19;4993325;28;20046;-48
2021/10/13 09:50:43;;;;;;;13.85;3.30;;;;;;;10.83;92.06;102502.38;4992797;28;20061;-49
2021/10/13 09:53:16;;;;;;;10.95;3.40;;;;;;;10.84;91.83;102500.47;4993086;28;20101;-49
2021/10/13 09:55:43;;;;;;;10.25;3.40;;;;;;;10.85;91.29;102507.59;4992724;28;20050;-46
2021/10/13 09:58:26;;;;;;;8.77;3.33;;;;;;;10.87;90.27;102508.19;4993237;28;20055;-48
2021/10/13 10:01:13;;;;;;;12.05;3.60;;;;;;;10.89;90.80;102511.50;4992989;28;20042;-48
2021/10/13 10:03:45;;;;;;;10.35;3.78;;;;;;;10.92;91.14;102508.34;4992548;28;20042;-48
2021/10/13 10:06:14;;;;;;;12.50;3.50;;;;;;;11.07;91.32;102507.94;4992872;28;20383;-49
2021/10/13 10:08:57;;;;;;;12.20;3.42;;;;;;;11.09;89.75;102501.19;5008209;28;20042;-47
2021/10/13 10:11:40;;;;;;;12.88;3.67;;;;;;;11.08;89.84;102510.44;4993103;28;20054;-45
2021/10/13 10:14:37;;;;;;;11.30;3.30;;;;;;;11.07;89.74;102516.13;4991869;28;20055;-47
2021/10/13 10:17:06;;;;;;;9.90;3.40;;;;;;;11.09;90.54;102523.03;4988386;28;20523;-48
2021/10/13 10:19:48;;;;;;;11.88;3.00;;;;;;;11.11;89.30;102524.69;4985919;28;20422;-48
2021/10/13 10:22:18;;;;;;;13.73;2.80;;;;;;;11.13;87.75;102517.09;4990567;28;20187;-49
2021/10/13 10:24:53;;;;;;;12.38;3.28;;;;;;;11.17;88.48;102518.31;4992629;28;20134;-48
2021/10/13 10:27:25;;;;;;;12.17;2.83;;;;;;;11.20;88.38;102520.56;4950263;28;1061483;-49
2021/10/13 10:30:02;;;;;;;11.70;2.90;;;;;;;11.20;87.35;102517.84;4992585;28;20509;-45
2021/10/13 10:32:29;;;;;;;10.23;2.30;;;;;;;11.23;88.27;102528.28;5007491;28;20047;-47
2021/10/13 10:35:06;;;;;;;11.23;2.80;;;;;;;11.26;87.06;102527.84;4993220;28;20516;-48
2021/10/13 10:37:46;;;;;;;11.73;2.85;;;;;;;11.27;86.01;102529.50;4993002;28;20452;-47
2021/10/13 10:40:22;;;;;;;6.75;2.47;;;;;;;11.28;86.07;102521.09;4640959;28;10000537;-47
2021/10/13 10:42:51;;;;;;;9.35;2.30;;;;;;;11.30;85.56;102529.88;4991264;28;20042;-48
2021/10/13 10:45:21;;;;;;;10.52;2.80;;;;;;;11.32;85.45;102531.53;4990061;28;20043;-49
2021/10/13 10:48:04;;;;;;;7.60;2.67;;;;;;;11.32;84.86;102534.28;4990931;28;20041;-46
2021/10/13 10:50:41;;;;;;;6.65;2.55;;;;;;;11.31;83.14;102541.63;4989595;28;20050;-49
2021/10/13 10:53:21;;;;;;;10.50;2.45;;;;;;;11.32;83.36;102531.53;4990102;28;20065;-49
2021/10/13 10:56:02;;;;;;;9.48;2.88;;;;;;;11.31;82.96;102538.91;4991012;28;20074;-49
2021/10/13 10:58:31;;;;;;;7.82;2.80;;;;;;;11.30;83.21;102539.94;4990726;28;20781;-48
2021/10/13 11:01:19;;;;;;;6.32;2.38;;;;;;;11.32;83.83;102532.38;4990579;28;20461;-48
2021/10/13 11:03:47;;;;;;;6.20;2.58;;;;;;;11.33;83.28;102520.41;4989513;28;20137;-48
2021/10/13 11:06:18;;;;;;;9.32;2.55;;;;;;;11.36;84.02;102522.66;4990518;28;20073;-47
2021/10/13 11:09:06;;;;;;;7.95;2.40;;;;;;;11.42;82.57;102527.19;4989497;28;20113;-48
2021/10/13 11:11:41;;;;;;;6.30;2.22;;;;;;;11.46;82.73;102528.38;4991140;28;20046;-45
2021/10/13 11:14:14;;;;;;;11.05;2.60;;;;;;;11.47;82.16;102521.88;4990521;28;20050;-47
2021/10/13 11:16:59;;;;;;;11.13;2.58;;;;;;;11.49;81.14;102522.47;4988704;28;20034;-48
2021/10/13 11:19:31;;;;;;;13.95;3.67;;;;;;;11.49;81.33;102522.47;4990649;28;20042;-48
2021/10/13 11:22:09;;;;;;;8.00;2.58;;;;;;;11.52;79.58;102526.66;4990599;28;20054;-50
2021/10/13 11:24:39;;;;;;;8.25;2.65;;;;;;;11.52;78.40;102518.47;4989997;28;20046;-50
2021/10/13 11:27:07;;;;;;;6.75;2.10;;;;;;;11.55;78.12;102519.88;4989755;28;20524;-49
2021/10/13 11:29:37;;;;;;;7.38;2.10;;;;;;;11.56;78.22;102516.06;4989930;28;20054;-48
2021/10/13 11:32:07;;;;;;;6.90;2.10;;;;;;;11.58;78.88;102524.88;4989946;28;20100;-49
2021/10/13 11:34:35;;;;;;;8.32;2.80;;;;;;;11.61;79.47;102521.66;4990273;28;20073;-48
2021/10/13 11:37:04;;;;;;;11.75;2.40;;;;;;;11.61;79.58;102524.41;5005407;28;20050;-46
2021/10/13 11:39:35;;;;;;;6.25;2.08;;;;;;;11.61;79.88;102517.03;4989751;28;20045;-48
2021/10/13 11:42:03;;;;;;;8.45;2.05;;;;;;;11.65;80.53;102510.06;4990116;28;20129;-48
2021/10/13 11:44:32;;;;;;;6.28;2.33;;;;;;;11.70;79.13;102512.09;4990114;28;20050;-50
2021/10/13 11:47:06;;;;;;;9.07;2.55;;;;;;;11.75;79.14;102508.66;4989570;28;20053;-49
2021/10/13 11:49:54;;;;;;;6.25;1.85;;;;;;;11.77;77.82;102518.28;4990255;28;20496;-49